Aérodrome :
LOGIN :

S'inscrire | Disclaimer

   EN    FR    IT 

 










Légende :    VFR   VFR Marginal   IFR   IFR Intensif   IFR Très Intensif
Visi : 
Plafond : 
>= 8 km
>= 3000ft
5 à 8 km
1000 à 3000 ft
1500m à 5 km
500 à 1000 ft
800 à 1500m
200 à 500 ft
< 800m
< 200 ft
Symboles :   Orages  Brouillard  Fortes neiges  Fortes précipitations  Vent > 20 kt
SIGMETs :   Divers  Orages  Givrage  Turbulence  Onde Orograph.  Cendres Volcan.






- Altitude de l'aérodrome : 82 ft
- Code IATA : QIE


LFMI - Istres

DERNIER METAR :
  • 301730Z AUTO 18011KT 9999 BKN015 BKN020 26/21 Q1011 TEMPO FEW070TCU

METARs EXPIRÉS :
  • 301700Z AUTO 17012KT 9999 BKN017 BKN023 27/21 Q1011 NOSIG
  • 301630Z AUTO 16012KT 140V200 9999 BKN019 27/21 Q1011 NOSIG
  • 301600Z AUTO 18011KT 150V210 9999 4700 BKN019 28/21 Q1011 NOSIG
  • 301530Z AUTO 19012KT 150V210 9999 4700 BKN019 27/21 Q1011 NOSIG
  • 301500Z AUTO 19013KT 9999 4900 SCT018 BKN140 28/21 Q1011 NOSIG

TAF TAF LFMI
Valide du 30 à 15h jusqu'au 31 à 15h UTC


301400Z 3015/3115 17012KT CAVOK TX32/3015Z TN21/3105Z
BECMG 3018/3020 VRB03KT
PROB30
TEMPO 3019/3024 FEW070TCU
BECMG 3022/3024 33012KT
PROB30
TEMPO 3100/3113 33015G25KT



MET'MAP, la Météo Aéronautique d'un coup d'oeil ! - Copyright ORBIFLY Décembre 2007 - Disclaimer

ORBIFLY MET'MAP TEAM :

Programmation & Développement : Alexandra Zaïnal
Sur une idée originale de : Baudouin d'Aumeries
Assistance à la programmation : Marc-Olivier Méhu
Soutien technique & logistique : Manuel Goepfert

Contact : metmap@orbifly.com




SOURCES & CREDITS :

   NOAA